createdAt,value
2019-01-03T00:00:01.557Z,0
2019-01-03T00:01:11.635Z,0
2019-01-03T00:02:21.725Z,0
2019-01-03T00:03:31.849Z,0
2019-01-03T00:04:41.902Z,0
2019-01-03T00:05:51.969Z,0
2019-01-03T00:07:02.028Z,0
2019-01-03T00:08:11.846Z,0
2019-01-03T00:09:21.931Z,0
2019-01-03T00:10:32.006Z,0
2019-01-03T00:11:42.120Z,0
2019-01-03T00:12:52.171Z,0
2019-01-03T00:14:02.257Z,0
2019-01-03T00:15:12.332Z,0
2019-01-03T00:16:22.440Z,0
2019-01-03T00:17:32.521Z,0
2019-01-03T00:18:42.610Z,0
2019-01-03T00:19:52.678Z,0
2019-01-03T00:21:02.747Z,0
2019-01-03T00:22:12.802Z,0
2019-01-03T00:23:22.628Z,0
2019-01-03T00:24:32.714Z,0
2019-01-03T00:25:42.756Z,0
2019-01-03T00:26:58.640Z,0
2019-01-03T00:28:08.805Z,0
2019-01-03T00:29:18.891Z,0
2019-01-03T00:30:28.987Z,0
2019-01-03T00:31:39.074Z,0
2019-01-03T00:32:49.142Z,0
2019-01-03T00:33:59.243Z,0
2019-01-03T00:35:09.287Z,0
2019-01-03T00:36:19.356Z,0
2019-01-03T00:37:29.169Z,0
2019-01-03T00:38:39.224Z,0
2019-01-03T00:39:49.272Z,0
2019-01-03T00:40:59.324Z,0
2019-01-03T00:42:09.140Z,0
2019-01-03T00:43:18.953Z,0
2019-01-03T00:44:28.998Z,0
2019-01-03T00:45:39.097Z,0
2019-01-03T00:46:49.166Z,0
2019-01-03T00:47:59.221Z,0
2019-01-03T00:49:09.022Z,0
2019-01-03T00:50:19.114Z,0
2019-01-03T00:51:29.165Z,0
2019-01-03T00:52:38.969Z,0
2019-01-03T00:53:49.041Z,0
2019-01-03T00:54:59.108Z,0
2019-01-03T00:56:09.186Z,0
2019-01-03T00:57:18.972Z,0
2019-01-03T00:58:29.045Z,0
2019-01-03T00:59:39.089Z,0
2019-01-03T01:00:48.884Z,0
2019-01-03T01:01:58.679Z,0
2019-01-03T01:03:08.475Z,0
2019-01-03T01:04:18.035Z,0
2019-01-03T01:05:28.101Z,0
2019-01-03T01:06:38.214Z,0
2019-01-03T01:07:48.290Z,0
2019-01-03T01:08:58.378Z,0
2019-01-03T01:10:08.942Z,0
2019-01-03T01:11:18.991Z,0
2019-01-03T01:12:29.044Z,0
2019-01-03T01:13:38.852Z,0
2019-01-03T01:14:48.896Z,0
2019-01-03T01:15:58.699Z,0
2019-01-03T01:17:09.491Z,0
2019-01-03T01:18:19.572Z,0
2019-01-03T01:19:29.389Z,0
2019-01-03T01:20:39.900Z,0
2019-01-03T01:21:49.963Z,0
2019-01-03T01:23:00.032Z,0
2019-01-03T01:24:09.832Z,0
2019-01-03T01:25:19.906Z,0
2019-01-03T01:26:29.953Z,0
2019-01-03T01:27:40.026Z,0
2019-01-03T01:28:49.558Z,0
2019-01-03T01:29:59.630Z,0
2019-01-03T01:31:09.703Z,0
2019-01-03T01:32:19.770Z,0
2019-01-03T01:33:29.843Z,0
2019-01-03T01:34:39.654Z,0
2019-01-03T01:35:49.755Z,0
2019-01-03T01:36:59.813Z,0
2019-01-03T01:38:10.487Z,0
2019-01-03T01:39:20.274Z,0
2019-01-03T01:40:30.342Z,0
2019-01-03T01:41:40.391Z,0
2019-01-03T01:42:50.456Z,0
2019-01-03T01:44:00.530Z,0
2019-01-03T01:45:10.592Z,0
2019-01-03T01:46:20.669Z,0
2019-01-03T01:47:30.495Z,0
2019-01-03T01:48:40.602Z,0
2019-01-03T01:49:50.671Z,0
2019-01-03T01:51:00.742Z,0
2019-01-03T01:52:10.809Z,0
2019-01-03T01:53:20.879Z,0
2019-01-03T01:54:30.972Z,0
2019-01-03T01:55:41.047Z,0
2019-01-03T01:56:51.103Z,0
2019-01-03T01:58:01.369Z,0
2019-01-03T01:59:11.431Z,0
2019-01-03T02:00:21.867Z,0
2019-01-03T02:01:31.668Z,0
2019-01-03T02:02:41.721Z,0
2019-01-03T02:03:51.534Z,0
2019-01-03T02:05:01.598Z,0
2019-01-03T02:06:11.651Z,0
2019-01-03T02:07:21.495Z,0
2019-01-03T02:08:31.280Z,0
2019-01-03T02:09:41.339Z,0
2019-01-03T02:10:51.397Z,0
2019-01-03T02:12:01.471Z,0
2019-01-03T02:13:11.279Z,0
2019-01-03T02:14:22.000Z,0
2019-01-03T02:15:32.139Z,0
2019-01-03T02:16:42.183Z,0
2019-01-03T02:17:52.253Z,0
2019-01-03T02:19:02.079Z,0
2019-01-03T02:20:12.245Z,0
2019-01-03T02:21:22.293Z,0
2019-01-03T02:22:32.349Z,0
2019-01-03T02:23:42.398Z,0
2019-01-03T02:24:52.450Z,0
2019-01-03T02:26:02.254Z,0
2019-01-03T02:27:12.311Z,0
2019-01-03T02:28:22.377Z,0
2019-01-03T02:29:32.453Z,0
2019-01-03T02:30:42.290Z,0
2019-01-03T02:31:52.101Z,0
2019-01-03T02:33:02.156Z,0
2019-01-03T02:34:12.043Z,0
2019-01-03T02:35:22.127Z,0
2019-01-03T02:36:32.180Z,0
2019-01-03T02:37:42.220Z,0
2019-01-03T02:38:52.008Z,0
2019-01-03T02:40:02.072Z,0
2019-01-03T02:41:11.895Z,0
2019-01-03T02:42:21.951Z,0
2019-01-03T02:43:31.764Z,0
2019-01-03T02:44:41.573Z,0
2019-01-03T02:45:51.636Z,0
2019-01-03T02:47:01.453Z,0
2019-01-03T02:48:11.568Z,0
2019-01-03T02:49:21.620Z,0
2019-01-03T02:50:31.433Z,0
2019-01-03T02:51:41.490Z,0
2019-01-03T02:52:51.287Z,0
2019-01-03T02:54:00.837Z,0
2019-01-03T02:55:10.904Z,0
2019-01-03T02:56:20.686Z,0
2019-01-03T02:57:30.747Z,0
2019-01-03T02:58:40.823Z,0
2019-01-03T02:59:50.886Z,0
2019-01-03T03:01:00.938Z,0
2019-01-03T03:02:10.984Z,0
2019-01-03T03:34:51.389Z,0
2019-01-03T03:36:02.220Z,0
2019-01-03T03:37:12.261Z,0
2019-01-03T03:38:22.314Z,0
2019-01-03T03:39:32.368Z,0
2019-01-03T03:40:42.498Z,0
2019-01-03T03:41:52.311Z,0
2019-01-03T03:43:02.132Z,0
2019-01-03T03:44:11.931Z,0
2019-01-03T03:45:21.711Z,0
2019-01-03T03:46:31.812Z,0
2019-01-03T03:47:41.886Z,0
2019-01-03T03:48:51.694Z,0
2019-01-03T03:50:01.772Z,0
2019-01-03T03:51:11.857Z,0
2019-01-03T03:52:21.973Z,0
2019-01-03T03:53:32.061Z,0
2019-01-03T03:54:42.127Z,0
2019-01-03T03:55:52.209Z,0
2019-01-03T03:57:02.269Z,0
2019-01-03T03:58:12.326Z,0
2019-01-03T03:59:22.418Z,0
2019-01-03T04:00:32.500Z,0
2019-01-03T04:01:42.589Z,0
2019-01-03T04:02:52.654Z,0
2019-01-03T04:04:03.716Z,0
2019-01-03T04:05:13.286Z,0
2019-01-03T04:06:23.108Z,0
2019-01-03T04:07:33.177Z,0
2019-01-03T04:08:43.342Z,0
2019-01-03T04:09:53.203Z,0
2019-01-03T04:11:03.001Z,0
2019-01-03T04:12:13.216Z,0
2019-01-03T04:13:23.270Z,0
2019-01-03T04:14:33.303Z,0
2019-01-03T04:15:43.160Z,0
2019-01-03T04:16:53.263Z,0
2019-01-03T04:18:03.567Z,0
2019-01-03T04:19:13.381Z,0
2019-01-03T04:20:23.456Z,0
2019-01-03T04:21:33.516Z,0
2019-01-03T04:22:43.654Z,0
2019-01-03T04:23:53.474Z,0
2019-01-03T04:25:03.544Z,0
2019-01-03T04:26:13.594Z,0
2019-01-03T04:27:23.769Z,0
2019-01-03T04:28:33.573Z,0
2019-01-03T04:29:43.365Z,0
2019-01-03T04:30:53.446Z,0
2019-01-03T04:32:03.517Z,0
2019-01-03T04:33:13.596Z,0
2019-01-03T04:34:23.656Z,0
2019-01-03T04:35:33.453Z,0
2019-01-03T04:36:43.246Z,0
2019-01-03T04:37:53.292Z,0
2019-01-03T04:39:03.157Z,0
2019-01-03T04:40:13.029Z,0
2019-01-03T04:41:23.105Z,0
2019-01-03T04:42:33.167Z,0
2019-01-03T04:43:43.227Z,0
2019-01-03T04:44:53.370Z,0
2019-01-03T04:46:03.453Z,0
2019-01-03T04:47:13.503Z,0
2019-01-03T04:48:23.571Z,0
2019-01-03T04:49:33.393Z,0
2019-01-03T04:50:43.455Z,0
2019-01-03T04:51:53.515Z,0
2019-01-03T04:53:03.571Z,0
2019-01-03T04:54:13.633Z,0
2019-01-03T04:55:23.708Z,0
2019-01-03T04:56:33.775Z,0
2019-01-03T04:57:43.580Z,0
2019-01-03T04:58:53.396Z,0
2019-01-03T05:00:04.115Z,0
2019-01-03T05:01:14.187Z,0
2019-01-03T05:02:24.064Z,0
2019-01-03T05:03:34.121Z,0
2019-01-03T05:04:44.198Z,0
2019-01-03T05:05:54.264Z,0
2019-01-03T05:07:04.313Z,0
2019-01-03T05:08:14.372Z,0
2019-01-03T05:09:24.451Z,0
2019-01-03T05:10:34.511Z,0
2019-01-03T05:11:44.568Z,0
2019-01-03T05:12:54.625Z,0
2019-01-03T05:14:04.746Z,0
2019-01-03T05:15:14.825Z,0
2019-01-03T05:16:24.893Z,0
2019-01-03T05:17:34.725Z,0
2019-01-03T05:18:44.808Z,0
2019-01-03T05:19:54.918Z,0
2019-01-03T05:21:04.786Z,0
2019-01-03T05:22:14.855Z,0
2019-01-03T05:23:24.928Z,0
2019-01-03T05:24:35.007Z,0
2019-01-03T05:25:45.065Z,0
2019-01-03T05:26:55.139Z,0
2019-01-03T05:28:05.363Z,0
2019-01-03T05:29:15.418Z,0
2019-01-03T05:30:27.575Z,0
2019-01-03T05:31:37.648Z,0
2019-01-03T05:32:47.700Z,0
2019-01-03T05:33:57.769Z,0
2019-01-03T05:35:09.461Z,0
2019-01-03T05:36:19.527Z,0
2019-01-03T05:37:29.587Z,0
2019-01-03T05:38:39.664Z,0
2019-01-03T05:39:49.532Z,0
2019-01-03T05:40:59.679Z,0
2019-01-03T05:42:09.795Z,0
2019-01-03T05:43:19.867Z,0
2019-01-03T05:44:29.944Z,0
2019-01-03T05:45:40.001Z,0
2019-01-03T05:46:50.074Z,0
2019-01-03T05:48:00.140Z,0
2019-01-03T05:49:10.257Z,0
2019-01-03T05:50:20.055Z,0
2019-01-03T05:51:30.131Z,0
2019-01-03T05:52:40.259Z,0
2019-01-03T05:53:50.325Z,0
2019-01-03T05:55:00.384Z,0
2019-01-03T05:56:09.939Z,0
2019-01-03T05:57:20.007Z,0
2019-01-03T05:58:30.066Z,0
2019-01-03T05:59:40.145Z,0
2019-01-03T06:00:50.207Z,0
2019-01-03T06:02:00.785Z,0
2019-01-03T06:03:10.879Z,0
2019-01-03T06:04:20.942Z,0
2019-01-03T06:05:31.014Z,0
2019-01-03T06:06:40.902Z,0
2019-01-03T06:07:50.688Z,0
2019-01-03T06:09:00.520Z,0
2019-01-03T06:10:10.946Z,0
2019-01-03T06:11:20.753Z,0
2019-01-03T06:12:30.817Z,0
2019-01-03T06:13:40.882Z,0
2019-01-03T06:14:50.684Z,0
2019-01-03T06:16:00.756Z,0
2019-01-03T06:17:10.546Z,0
2019-01-03T06:18:20.616Z,0
2019-01-03T06:19:30.686Z,0
2019-01-03T06:20:40.753Z,0
2019-01-03T06:21:50.790Z,0
2019-01-03T06:23:00.600Z,0
2019-01-03T06:24:10.674Z,0
2019-01-03T06:25:20.762Z,0
2019-01-03T06:26:30.838Z,0
2019-01-03T06:27:40.902Z,0
2019-01-03T06:28:50.716Z,0
2019-01-03T06:30:00.798Z,0
2019-01-03T06:31:10.855Z,0
2019-01-03T06:32:20.683Z,0
2019-01-03T06:33:30.765Z,0
2019-01-03T06:34:40.851Z,0
2019-01-03T06:35:50.996Z,0
2019-01-03T06:37:01.064Z,0
2019-01-03T06:38:11.135Z,0
2019-01-03T06:39:21.186Z,0
2019-01-03T06:40:31.225Z,0
2019-01-03T06:41:41.289Z,0
2019-01-03T06:42:51.744Z,0
2019-01-03T06:44:01.893Z,0
2019-01-03T06:45:11.980Z,0
2019-01-03T06:46:22.017Z,0
2019-01-03T06:47:32.091Z,0
2019-01-03T06:48:42.162Z,0
2019-01-03T06:49:52.215Z,5
2019-01-03T06:51:02.009Z,5
2019-01-03T06:52:12.043Z,5
2019-01-03T06:53:21.842Z,5
2019-01-03T06:54:31.900Z,5
2019-01-03T06:55:41.955Z,5
2019-01-03T06:56:52.012Z,5
2019-01-03T06:58:02.667Z,10
2019-01-03T06:59:12.739Z,10
2019-01-03T07:00:23.203Z,10
2019-01-03T07:01:33.270Z,15
2019-01-03T07:02:43.337Z,15
2019-01-03T07:03:53.405Z,15
2019-01-03T07:05:03.472Z,15
2019-01-03T07:06:13.527Z,15
2019-01-03T07:07:23.587Z,15
2019-01-03T07:08:33.653Z,15
2019-01-03T07:09:43.448Z,20
2019-01-03T07:10:53.515Z,20
2019-01-03T07:12:03.567Z,20
2019-01-03T07:13:13.363Z,20
2019-01-03T07:14:23.431Z,20
2019-01-03T07:15:33.496Z,20
2019-01-03T07:16:43.582Z,20
2019-01-03T07:17:53.639Z,20
2019-01-03T07:19:03.701Z,15
2019-01-03T07:20:13.768Z,20
2019-01-03T07:21:29.644Z,15
2019-01-03T07:22:39.692Z,15
2019-01-03T07:23:49.501Z,15
2019-01-03T07:24:59.556Z,15
2019-01-03T07:26:09.616Z,15
2019-01-03T07:27:19.667Z,15
2019-01-03T07:28:29.714Z,15
2019-01-03T07:29:39.779Z,15
2019-01-03T07:30:49.867Z,15
2019-01-03T07:31:59.928Z,15
2019-01-03T07:33:12.102Z,15
2019-01-03T07:34:21.890Z,15
2019-01-03T07:35:31.692Z,15
2019-01-03T07:36:41.500Z,20
2019-01-03T07:37:51.563Z,20
2019-01-03T07:39:01.626Z,20
2019-01-03T07:40:11.689Z,20
2019-01-03T07:41:21.741Z,25
2019-01-03T07:42:31.824Z,25
2019-01-03T07:43:41.371Z,30
2019-01-03T07:44:51.445Z,30
2019-01-03T07:46:01.541Z,35
2019-01-03T07:47:11.611Z,35
2019-01-03T07:48:21.675Z,35
2019-01-03T07:49:31.737Z,40
2019-01-03T07:50:41.796Z,40
2019-01-03T07:51:51.970Z,40
2019-01-03T07:53:02.022Z,45
2019-01-03T07:54:11.812Z,45
2019-01-03T07:55:21.876Z,45
2019-01-03T07:56:31.937Z,45
2019-01-03T07:57:42.003Z,50
2019-01-03T07:58:51.791Z,50
2019-01-03T08:00:01.894Z,50
2019-01-03T08:01:11.475Z,50
2019-01-03T08:02:21.535Z,50
2019-01-03T08:03:31.601Z,55
2019-01-03T08:04:41.415Z,55
2019-01-03T08:05:51.470Z,55
2019-01-03T08:07:01.539Z,55
2019-01-03T08:08:11.599Z,55
2019-01-03T08:09:21.641Z,60
2019-01-03T08:10:31.705Z,60
2019-01-03T08:11:41.832Z,60
2019-01-03T08:12:51.368Z,60
2019-01-03T08:14:02.080Z,60
2019-01-03T08:15:12.135Z,60
2019-01-03T08:16:22.197Z,60
2019-01-03T08:17:32.242Z,65
2019-01-03T08:18:42.309Z,65
2019-01-03T08:19:52.379Z,65
2019-01-03T08:21:02.490Z,65
2019-01-03T08:22:12.291Z,65
2019-01-03T08:23:22.348Z,65
2019-01-03T08:24:32.172Z,65
2019-01-03T08:25:41.978Z,65
2019-01-03T08:26:52.037Z,65
2019-01-03T08:28:02.114Z,65
2019-01-03T08:29:12.179Z,65
2019-01-03T08:30:22.231Z,65
2019-01-03T08:31:32.291Z,65
2019-01-03T08:32:42.355Z,65
2019-01-03T08:33:52.424Z,65
2019-01-03T08:35:02.223Z,65
2019-01-03T08:36:12.285Z,65
2019-01-03T08:37:21.928Z,65
2019-01-03T08:38:31.725Z,65
2019-01-03T08:39:41.786Z,65
2019-01-03T08:40:51.863Z,65
2019-01-03T08:42:01.422Z,65
2019-01-03T08:43:11.275Z,70
2019-01-03T08:44:21.339Z,70
2019-01-03T08:45:31.162Z,70
2019-01-03T08:46:41.214Z,70
2019-01-03T08:47:51.277Z,70
2019-01-03T08:49:07.754Z,70
2019-01-03T08:50:17.567Z,70
2019-01-03T08:51:27.631Z,70
2019-01-03T08:52:37.712Z,70
2019-01-03T08:53:47.506Z,70
2019-01-03T08:54:57.573Z,70
2019-01-03T08:56:08.532Z,70
2019-01-03T08:57:18.333Z,70
2019-01-03T08:58:28.398Z,70
2019-01-03T08:59:38.197Z,70
2019-01-03T09:00:47.734Z,70
2019-01-03T09:01:57.794Z,75
2019-01-03T09:03:07.846Z,75
2019-01-03T09:04:17.917Z,75
2019-01-03T09:05:27.963Z,75
2019-01-03T09:06:38.022Z,80
2019-01-03T09:07:48.080Z,80
2019-01-03T09:08:58.154Z,85
2019-01-03T09:10:08.401Z,85
2019-01-03T09:11:18.469Z,90
2019-01-03T09:12:28.002Z,90
2019-01-03T09:13:38.071Z,95
2019-01-03T09:14:48.128Z,95
2019-01-03T09:15:58.212Z,100
2019-01-03T09:17:08.278Z,100
2019-01-03T09:18:19.865Z,110
2019-01-03T09:19:29.945Z,100
2019-01-03T09:20:40.016Z,100
2019-01-03T09:21:50.075Z,95
2019-01-03T09:23:00.245Z,95
2019-01-03T09:24:10.313Z,85
2019-01-03T09:25:20.106Z,85
2019-01-03T09:26:30.173Z,85
2019-01-03T09:27:40.210Z,85
2019-01-03T09:28:50.285Z,85
2019-01-03T09:30:01.323Z,90
2019-01-03T09:31:11.591Z,95
2019-01-03T09:32:21.701Z,105
2019-01-03T09:33:31.767Z,120
2019-01-03T09:34:42.175Z,135
2019-01-03T09:35:52.061Z,150
2019-01-03T09:37:01.887Z,160
2019-01-03T09:38:11.956Z,160
2019-01-03T09:39:22.033Z,155
2019-01-03T09:40:31.842Z,140
2019-01-03T09:41:41.952Z,150
2019-01-03T09:42:51.744Z,130
2019-01-03T09:44:01.543Z,115
2019-01-03T09:45:11.674Z,120
2019-01-03T09:46:21.217Z,115
2019-01-03T09:47:31.346Z,120
2019-01-03T09:48:41.388Z,110
2019-01-03T09:49:50.943Z,100
2019-01-03T09:51:01.009Z,100
2019-01-03T09:52:11.075Z,100
2019-01-03T09:53:21.195Z,95
2019-01-03T09:54:31.043Z,95
2019-01-03T09:55:40.835Z,90
2019-01-03T09:56:50.892Z,85
2019-01-03T09:58:00.949Z,80
2019-01-03T09:59:10.751Z,80
2019-01-03T10:00:21.367Z,75
2019-01-03T10:01:31.438Z,80
2019-01-03T10:02:41.591Z,85
2019-01-03T10:03:51.642Z,80
2019-01-03T10:05:01.433Z,80
2019-01-03T10:06:11.552Z,80
2019-01-03T10:07:21.605Z,80
2019-01-03T10:08:31.403Z,80
2019-01-03T10:09:41.451Z,85
2019-01-03T10:10:51.509Z,85
2019-01-03T10:12:01.574Z,90
2019-01-03T10:13:11.635Z,95
2019-01-03T10:14:21.699Z,105
2019-01-03T10:15:31.760Z,120
2019-01-03T10:16:41.807Z,130
2019-01-03T10:17:51.850Z,135
2019-01-03T10:19:01.919Z,135
2019-01-03T10:20:11.723Z,120
2019-01-03T10:21:21.763Z,110
2019-01-03T10:22:31.832Z,115
2019-01-03T10:23:41.907Z,115
2019-01-03T10:24:51.985Z,120
2019-01-03T10:26:02.053Z,120
2019-01-03T10:27:12.135Z,125
2019-01-03T10:28:22.286Z,130
2019-01-03T10:29:32.353Z,130
2019-01-03T10:30:42.423Z,120
2019-01-03T10:31:52.219Z,105
2019-01-03T10:33:02.009Z,105
2019-01-03T10:34:11.793Z,85
2019-01-03T10:35:21.608Z,80
2019-01-03T10:36:34.828Z,85
2019-01-03T10:37:44.905Z,90
2019-01-03T10:38:54.973Z,100
2019-01-03T10:40:05.141Z,105
2019-01-03T10:41:15.189Z,100
2019-01-03T10:42:24.982Z,100
2019-01-03T10:43:35.040Z,105
2019-01-03T10:44:45.122Z,105
2019-01-03T10:45:54.674Z,110
2019-01-03T10:47:04.494Z,115
2019-01-03T10:48:14.594Z,130
2019-01-03T10:49:24.160Z,140
2019-01-03T10:50:34.229Z,140
2019-01-03T10:51:44.389Z,135
2019-01-03T10:52:54.213Z,115
2019-01-03T10:54:04.840Z,105
2019-01-03T10:55:14.901Z,100
2019-01-03T10:56:25.003Z,85
2019-01-03T10:57:35.131Z,80
2019-01-03T10:58:45.193Z,75
2019-01-03T10:59:55.846Z,75
2019-01-03T11:01:05.407Z,75
2019-01-03T11:02:15.213Z,75
2019-01-03T11:03:25.343Z,80
2019-01-03T11:04:35.391Z,70
2019-01-03T11:05:45.480Z,70
2019-01-03T11:06:55.549Z,70
2019-01-03T11:08:05.609Z,65
2019-01-03T11:09:15.719Z,55
2019-01-03T11:10:25.805Z,45
2019-01-03T11:11:35.891Z,40
2019-01-03T11:12:45.454Z,40
2019-01-03T11:13:55.526Z,40
2019-01-03T11:15:05.572Z,40
2019-01-03T11:16:15.634Z,40
2019-01-03T11:17:25.695Z,30
2019-01-03T11:18:35.746Z,20
2019-01-03T11:19:45.794Z,20
2019-01-03T11:20:55.853Z,20
2019-01-03T11:22:05.679Z,25
2019-01-03T11:23:15.733Z,30
2019-01-03T11:24:25.546Z,35
2019-01-03T11:25:35.617Z,40
2019-01-03T11:26:45.721Z,45
2019-01-03T11:27:55.799Z,45
2019-01-03T11:29:05.343Z,50
2019-01-03T11:30:15.174Z,65
2019-01-03T11:31:25.235Z,85
2019-01-03T11:32:35.282Z,100
2019-01-03T11:33:45.343Z,105
2019-01-03T11:34:55.410Z,90
2019-01-03T11:36:05.504Z,70
2019-01-03T11:37:15.570Z,55
2019-01-03T11:38:25.617Z,40
2019-01-03T11:39:35.700Z,35
2019-01-03T11:40:45.801Z,30
2019-01-03T11:41:55.870Z,25
2019-01-03T11:43:05.944Z,30
2019-01-03T11:44:16.008Z,35
2019-01-03T11:45:26.076Z,35
2019-01-03T11:46:35.906Z,40
2019-01-03T11:47:45.998Z,40
2019-01-03T11:48:56.074Z,40
2019-01-03T11:50:06.229Z,45
2019-01-03T11:51:16.016Z,45
2019-01-03T11:52:25.834Z,40
2019-01-03T11:53:35.396Z,40
2019-01-03T11:54:44.940Z,40
2019-01-03T11:55:54.497Z,40
2019-01-03T11:57:04.308Z,40
2019-01-03T11:58:14.376Z,40
2019-01-03T11:59:24.472Z,40
2019-01-03T12:00:34.558Z,40
2019-01-03T12:01:44.618Z,40
2019-01-03T12:02:54.751Z,45
2019-01-03T12:04:05.064Z,45
2019-01-03T12:05:15.187Z,45
2019-01-03T12:06:24.742Z,45
2019-01-03T12:07:34.284Z,45
2019-01-03T12:08:44.341Z,50
2019-01-03T12:09:54.415Z,55
2019-01-03T12:11:04.817Z,55
2019-01-03T12:12:14.975Z,60
2019-01-03T12:13:25.042Z,55
2019-01-03T12:14:34.853Z,60
2019-01-03T12:15:44.916Z,60
2019-01-03T12:16:54.698Z,60
2019-01-03T12:18:04.511Z,60
2019-01-03T12:19:14.684Z,60
2019-01-03T12:20:24.823Z,55
2019-01-03T12:21:34.873Z,50
2019-01-03T12:22:44.961Z,45
2019-01-03T12:23:55.045Z,45
2019-01-03T12:25:05.115Z,45
2019-01-03T12:26:14.986Z,45
2019-01-03T12:27:25.047Z,40
2019-01-03T12:28:35.176Z,40
2019-01-03T12:29:44.981Z,40
2019-01-03T12:30:55.058Z,40
2019-01-03T12:32:04.877Z,40
2019-01-03T12:33:14.989Z,45
2019-01-03T12:34:24.783Z,45
2019-01-03T12:35:34.852Z,45
2019-01-03T12:36:44.934Z,45
2019-01-03T12:37:54.994Z,50
2019-01-03T12:39:05.046Z,45
2019-01-03T12:40:15.128Z,45
2019-01-03T12:41:24.946Z,45
2019-01-03T12:42:35.037Z,45
2019-01-03T12:43:44.850Z,45
2019-01-03T12:44:54.648Z,40
2019-01-03T12:46:04.464Z,40
2019-01-03T12:47:14.525Z,35
2019-01-03T12:48:24.599Z,35
2019-01-03T12:49:34.756Z,35
2019-01-03T12:50:44.814Z,35
2019-01-03T12:51:54.896Z,35
2019-01-03T12:53:07.160Z,40
2019-01-03T12:54:17.223Z,40
2019-01-03T12:55:27.329Z,40
2019-01-03T12:56:37.410Z,40
2019-01-03T12:57:47.474Z,40
2019-01-03T12:58:57.541Z,40
2019-01-03T13:00:08.681Z,40
2019-01-03T13:01:18.742Z,40
2019-01-03T13:02:28.564Z,40
2019-01-03T13:03:38.669Z,40
2019-01-03T13:04:48.736Z,40
2019-01-03T13:05:58.850Z,40
2019-01-03T13:07:08.928Z,40
2019-01-03T13:08:18.999Z,40
2019-01-03T13:09:29.079Z,40
2019-01-03T13:10:38.889Z,35
2019-01-03T13:11:48.706Z,35
2019-01-03T13:12:58.762Z,35
2019-01-03T13:14:08.844Z,35
2019-01-03T13:15:18.906Z,30
2019-01-03T13:16:28.990Z,30
2019-01-03T13:17:38.818Z,25
2019-01-03T13:18:48.666Z,30
2019-01-03T13:19:58.764Z,25
2019-01-03T13:21:09.550Z,25
2019-01-03T13:22:19.631Z,25
2019-01-03T13:23:29.689Z,25
2019-01-03T13:24:39.791Z,20
2019-01-03T13:25:49.594Z,20
2019-01-03T13:26:59.691Z,20
2019-01-03T13:28:09.769Z,20
2019-01-03T13:29:19.815Z,20
2019-01-03T13:30:29.873Z,25
2019-01-03T13:31:39.944Z,30
2019-01-03T13:32:50.007Z,35
2019-01-03T13:34:00.109Z,40
2019-01-03T13:35:12.000Z,40
2019-01-03T13:36:22.071Z,40
2019-01-03T13:37:32.129Z,35
2019-01-03T13:38:42.195Z,30
2019-01-03T13:39:52.263Z,25
2019-01-03T13:41:02.322Z,20
2019-01-03T13:42:12.370Z,20
2019-01-03T13:43:22.186Z,25
2019-01-03T13:44:32.265Z,30
2019-01-03T13:45:42.336Z,35
2019-01-03T13:46:52.439Z,35
2019-01-03T13:48:02.537Z,35
2019-01-03T13:49:12.594Z,35
2019-01-03T13:50:22.657Z,35
2019-01-03T13:51:32.718Z,35
2019-01-03T13:52:42.515Z,30
2019-01-03T13:53:52.359Z,35
2019-01-03T13:55:02.403Z,35
2019-01-03T13:56:12.208Z,35
2019-01-03T13:57:22.007Z,35
2019-01-03T13:58:32.067Z,35
2019-01-03T13:59:42.175Z,35
2019-01-03T14:00:52.244Z,35
2019-01-03T14:02:01.797Z,35
2019-01-03T14:03:11.867Z,35
2019-01-03T14:04:21.961Z,30
2019-01-03T14:05:32.022Z,30
2019-01-03T14:06:42.098Z,30
2019-01-03T14:07:52.172Z,30
2019-01-03T14:09:02.269Z,25
2019-01-03T14:10:12.390Z,25
2019-01-03T14:11:22.481Z,25
2019-01-03T14:12:32.573Z,20
2019-01-03T14:13:42.352Z,15
2019-01-03T14:14:52.410Z,15
2019-01-03T14:16:02.231Z,15
2019-01-03T14:17:12.025Z,15
2019-01-03T14:18:21.840Z,15
2019-01-03T14:19:31.923Z,15
2019-01-03T14:20:41.753Z,15
2019-01-03T14:21:51.585Z,20
2019-01-03T14:23:02.809Z,20
2019-01-03T14:24:12.981Z,15
2019-01-03T14:25:22.808Z,15
2019-01-03T14:26:32.924Z,15
2019-01-03T14:27:42.746Z,15
2019-01-03T14:28:52.811Z,10
2019-01-03T14:30:02.894Z,15
2019-01-03T14:31:12.947Z,10
2019-01-03T14:32:23.003Z,10
2019-01-03T14:33:33.078Z,10
2019-01-03T14:34:42.953Z,10
2019-01-03T14:35:53.083Z,10
2019-01-03T14:37:03.618Z,10
2019-01-03T14:38:13.716Z,10
2019-01-03T14:39:23.796Z,10
2019-01-03T14:40:33.892Z,5
2019-01-03T14:41:43.682Z,5
2019-01-03T14:42:53.710Z,5
2019-01-03T14:44:03.771Z,5
2019-01-03T14:45:13.586Z,5
2019-01-03T14:46:23.661Z,5
2019-01-03T14:47:33.710Z,5
2019-01-03T14:48:43.792Z,5
2019-01-03T14:49:53.858Z,5
2019-01-03T14:51:03.924Z,5
2019-01-03T14:52:13.980Z,5
2019-01-03T14:53:24.025Z,5
2019-01-03T14:54:33.850Z,5
2019-01-03T14:55:43.917Z,5
2019-01-03T14:56:53.995Z,5
2019-01-03T14:58:04.070Z,5
2019-01-03T14:59:13.883Z,5
2019-01-03T15:00:24.262Z,0
2019-01-03T15:01:34.357Z,0
2019-01-03T15:02:44.430Z,0
2019-01-03T15:03:54.515Z,0
2019-01-03T15:05:04.611Z,0
2019-01-03T15:06:14.709Z,0
2019-01-03T15:07:24.529Z,0
2019-01-03T15:08:34.638Z,0
2019-01-03T15:09:44.453Z,0
2019-01-03T15:10:54.279Z,0
2019-01-03T15:12:04.369Z,0
2019-01-03T15:13:14.546Z,0
2019-01-03T15:14:24.652Z,0
2019-01-03T15:15:34.721Z,0
2019-01-03T15:16:44.839Z,0
2019-01-03T15:17:54.400Z,0
2019-01-03T15:19:04.480Z,0
2019-01-03T15:20:14.555Z,0
2019-01-03T15:21:24.642Z,0
2019-01-03T15:22:34.706Z,0
2019-01-03T15:23:44.772Z,0
2019-01-03T15:24:54.845Z,0
2019-01-03T15:26:04.663Z,0
2019-01-03T15:27:14.718Z,0
2019-01-03T15:28:24.544Z,0
2019-01-03T15:29:34.617Z,0
2019-01-03T15:30:44.709Z,0
2019-01-03T15:31:54.791Z,0
2019-01-03T15:33:04.592Z,0
2019-01-03T15:34:14.644Z,0
2019-01-03T15:35:24.786Z,0
2019-01-03T15:36:34.873Z,0
2019-01-03T15:37:44.927Z,0
2019-01-03T15:38:55.002Z,0
2019-01-03T15:40:05.190Z,0
2019-01-03T15:41:15.285Z,0
2019-01-03T15:42:25.093Z,0
2019-01-03T15:43:34.908Z,0
2019-01-03T15:44:44.998Z,0
2019-01-03T15:45:55.058Z,0
2019-01-03T15:47:04.882Z,0
2019-01-03T15:48:15.022Z,0
2019-01-03T15:49:25.115Z,0
2019-01-03T15:50:35.182Z,0
2019-01-03T15:51:45.281Z,0
2019-01-03T15:52:55.122Z,0
2019-01-03T15:54:05.180Z,0
2019-01-03T15:55:15.243Z,0
2019-01-03T15:56:25.324Z,0
2019-01-03T15:57:35.395Z,0
2019-01-03T15:58:45.486Z,0
2019-01-03T15:59:55.317Z,0
2019-01-03T16:01:05.390Z,0
2019-01-03T16:02:15.468Z,0
2019-01-03T16:03:25.535Z,0
2019-01-03T16:04:35.594Z,0
2019-01-03T16:05:45.460Z,0
2019-01-03T16:06:55.500Z,0
2019-01-03T16:08:05.559Z,0
2019-01-03T16:09:15.612Z,0
2019-01-03T16:10:25.722Z,0
2019-01-03T16:11:35.822Z,0
2019-01-03T16:12:45.892Z,0
2019-01-03T16:13:55.707Z,0
2019-01-03T16:15:07.257Z,0
2019-01-03T16:16:17.113Z,0
2019-01-03T16:17:27.211Z,0
2019-01-03T16:18:36.991Z,0
2019-01-03T16:19:47.050Z,0
2019-01-03T16:20:57.096Z,0
2019-01-03T16:22:07.185Z,0
2019-01-03T16:23:17.261Z,0
2019-01-03T16:24:27.073Z,0
2019-01-03T16:25:37.142Z,0
2019-01-03T16:26:47.226Z,0
2019-01-03T16:27:57.090Z,0
2019-01-03T16:29:07.160Z,0
2019-01-03T16:30:17.228Z,0
2019-01-03T16:31:27.047Z,0
2019-01-03T16:32:37.135Z,0
2019-01-03T16:33:47.243Z,0
2019-01-03T16:34:57.303Z,0
2019-01-03T16:36:07.506Z,0
2019-01-03T16:37:17.577Z,0
2019-01-03T16:38:27.711Z,0
2019-01-03T16:39:37.755Z,0
2019-01-03T16:40:47.579Z,0
2019-01-03T16:41:57.662Z,0
2019-01-03T16:43:07.742Z,0
2019-01-03T16:44:17.540Z,0
2019-01-03T16:45:27.624Z,0
2019-01-03T16:46:37.707Z,0
2019-01-03T16:47:47.765Z,0
2019-01-03T16:48:57.844Z,0
2019-01-03T16:50:07.952Z,0
2019-01-03T16:51:18.014Z,0
2019-01-03T16:52:28.094Z,0
2019-01-03T16:53:37.940Z,0
2019-01-03T16:54:47.739Z,0
2019-01-03T16:55:57.826Z,0
2019-01-03T16:57:07.894Z,0
2019-01-03T16:58:17.696Z,0
2019-01-03T16:59:27.735Z,0
2019-01-03T17:00:37.546Z,0
2019-01-03T17:01:47.346Z,0
2019-01-03T17:02:57.463Z,0
2019-01-03T17:04:07.793Z,0
2019-01-03T17:05:17.615Z,0
2019-01-03T17:06:27.657Z,0
2019-01-03T17:07:37.763Z,0
2019-01-03T17:08:47.810Z,0
2019-01-03T17:09:57.885Z,0
2019-01-03T17:11:07.694Z,0
2019-01-03T17:12:17.742Z,0
2019-01-03T17:13:27.825Z,0
2019-01-03T17:14:37.900Z,0
2019-01-03T17:15:47.730Z,0
2019-01-03T17:16:57.531Z,0
2019-01-03T17:18:07.338Z,0
2019-01-03T17:19:17.398Z,0
2019-01-03T17:20:27.477Z,0
2019-01-03T17:21:37.533Z,0
2019-01-03T17:22:47.591Z,0
2019-01-03T17:23:57.703Z,0
2019-01-03T17:25:07.790Z,0
2019-01-03T17:26:17.857Z,0
2019-01-03T17:27:27.916Z,0